createdAt,value
2023-02-19T00:00:43.060Z,27.97
2023-02-19T00:01:43.041Z,31.67
2023-02-19T00:02:43.032Z,28.56
2023-02-19T00:03:43.037Z,28.52
2023-02-19T00:04:43.033Z,27.62
2023-02-19T00:05:42.979Z,27.54
2023-02-19T00:06:42.972Z,28.72
2023-02-19T00:07:42.951Z,30.12
2023-02-19T00:08:42.936Z,27.48
2023-02-19T00:09:42.924Z,28.98
2023-02-19T00:10:42.909Z,28.12
2023-02-19T00:11:42.886Z,26.94
2023-02-19T00:12:42.878Z,29.55
2023-02-19T00:13:42.872Z,28.85
2023-02-19T00:14:42.851Z,28.51
2023-02-19T00:15:42.840Z,29.31
2023-02-19T00:16:42.826Z,26.04
2023-02-19T00:17:42.814Z,29.19
2023-02-19T00:18:42.808Z,28.64
2023-02-19T00:19:42.784Z,35.82
2023-02-19T00:20:42.781Z,30.00
2023-02-19T00:21:42.822Z,31.94
2023-02-19T00:22:42.757Z,28.24
2023-02-19T00:23:42.742Z,31.31
2023-02-19T00:24:42.734Z,35.23
2023-02-19T00:25:42.729Z,34.90
2023-02-19T00:26:42.702Z,33.70
2023-02-19T00:27:42.693Z,29.04
2023-02-19T00:28:42.681Z,28.27
2023-02-19T00:29:42.672Z,29.19
2023-02-19T00:30:42.684Z,27.95
2023-02-19T00:31:42.820Z,25.48
2023-02-19T00:32:42.626Z,27.28
2023-02-19T00:33:42.617Z,29.92
2023-02-19T00:34:42.617Z,26.61
2023-02-19T00:35:42.609Z,30.60
2023-02-19T00:36:42.613Z,28.87
2023-02-19T00:37:42.590Z,28.15
2023-02-19T00:38:42.575Z,26.73
2023-02-19T00:39:42.560Z,31.05
2023-02-19T00:40:42.554Z,33.88
2023-02-19T00:41:42.540Z,28.21
2023-02-19T00:42:42.524Z,29.20
2023-02-19T00:43:42.500Z,29.33
2023-02-19T00:44:42.490Z,31.52
2023-02-19T00:45:42.476Z,33.52
2023-02-19T00:46:42.521Z,32.23
2023-02-19T00:47:42.468Z,28.46
2023-02-19T00:48:42.446Z,28.16
2023-02-19T00:49:42.441Z,27.86
2023-02-19T00:50:42.427Z,27.32
2023-02-19T00:51:42.415Z,27.53
2023-02-19T00:52:42.400Z,27.34
2023-02-19T00:53:42.448Z,28.36
2023-02-19T00:54:43.168Z,31.70
2023-02-19T00:55:42.353Z,27.01
2023-02-19T00:56:42.366Z,28.83
2023-02-19T00:57:42.347Z,28.28
2023-02-19T00:58:42.335Z,26.69
2023-02-19T00:59:42.314Z,28.87
2023-02-19T01:00:42.298Z,26.64
2023-02-19T01:01:43.297Z,26.21
2023-02-19T01:02:42.271Z,30.70
2023-02-19T01:03:42.283Z,26.52
2023-02-19T01:04:42.281Z,29.77
2023-02-19T01:05:42.228Z,28.60
2023-02-19T01:06:42.274Z,32.39
2023-02-19T01:07:42.203Z,29.43
2023-02-19T01:08:42.203Z,33.95
2023-02-19T01:55:41.661Z,27.27
2023-02-19T01:56:41.652Z,28.55
2023-02-19T01:57:41.630Z,30.85
2023-02-19T01:58:41.634Z,32.60
2023-02-19T01:59:41.640Z,31.71
2023-02-19T02:32:41.620Z,30.60
2023-02-19T02:33:41.643Z,31.62
2023-02-19T02:34:41.653Z,29.85
2023-02-19T02:35:41.641Z,30.31
2023-02-19T02:36:41.627Z,32.70
2023-02-19T02:37:41.612Z,30.91
2023-02-19T02:38:41.639Z,29.66
2023-02-19T02:39:41.681Z,25.00
2023-02-19T02:40:41.626Z,26.72
2023-02-19T02:41:41.637Z,30.21
2023-02-19T02:42:41.621Z,30.94
2023-02-19T02:43:41.622Z,29.33
2023-02-19T02:44:41.618Z,33.23
2023-02-19T02:45:41.631Z,31.98
2023-02-19T02:46:41.594Z,31.07
2023-02-19T02:47:41.589Z,36.12
2023-02-19T02:48:41.579Z,29.82
2023-02-19T02:49:41.579Z,32.81
2023-02-19T02:50:41.589Z,32.88
2023-02-19T02:51:41.575Z,36.50
2023-02-19T02:52:41.551Z,29.27
2023-02-19T02:53:41.558Z,34.33
2023-02-19T02:54:41.663Z,28.86
2023-02-19T02:55:41.585Z,26.98
2023-02-19T02:56:41.523Z,28.22
2023-02-19T02:57:41.500Z,26.91
2023-02-19T02:58:41.484Z,29.44
2023-02-19T02:59:41.462Z,32.96
2023-02-19T03:00:41.481Z,30.36
2023-02-19T03:01:41.442Z,27.77
2023-02-19T03:02:41.417Z,32.57
2023-02-19T03:03:42.159Z,35.11
2023-02-19T03:04:42.220Z,34.99
2023-02-19T03:05:41.652Z,34.29
2023-02-19T03:06:41.386Z,37.22
2023-02-19T03:07:41.343Z,35.51
2023-02-19T03:08:41.333Z,31.80
2023-02-19T03:09:41.333Z,35.82
2023-02-19T03:10:41.325Z,36.10
2023-02-19T03:11:41.291Z,36.86
2023-02-19T04:28:41.631Z,25.00
2023-02-19T04:29:41.619Z,26.32
2023-02-19T04:30:41.671Z,28.58
2023-02-19T04:31:41.620Z,30.53
2023-02-19T04:32:41.581Z,25.79
2023-02-19T04:33:41.563Z,27.30
2023-02-19T04:34:41.614Z,29.37
2023-02-19T04:36:41.522Z,32.44
2023-02-19T04:37:41.502Z,36.10
2023-02-19T04:38:41.483Z,33.71
2023-02-19T04:39:41.469Z,34.22
2023-02-19T04:40:41.449Z,34.79
2023-02-19T04:41:41.440Z,32.56
2023-02-19T04:42:41.505Z,33.78
2023-02-19T04:43:41.408Z,32.77
2023-02-19T04:44:41.386Z,33.17
2023-02-19T04:45:41.373Z,33.36
2023-02-19T04:46:43.028Z,33.84
2023-02-19T04:47:41.358Z,31.56
2023-02-19T04:48:41.431Z,33.82
2023-02-19T04:49:41.363Z,33.40
2023-02-19T04:50:41.359Z,36.75
2023-02-19T04:51:41.433Z,29.67
2023-02-19T04:52:42.138Z,29.90
2023-02-19T04:53:41.346Z,32.91
2023-02-19T04:54:41.332Z,30.69
2023-02-19T04:55:41.326Z,29.85
2023-02-19T04:56:41.303Z,32.30
2023-02-19T04:57:41.391Z,37.46
2023-02-19T04:58:41.302Z,31.71
2023-02-19T04:59:41.285Z,31.16
2023-02-19T05:00:41.273Z,34.12
2023-02-19T05:01:41.292Z,32.21
2023-02-19T05:02:41.237Z,33.33
2023-02-19T05:03:41.225Z,29.49
2023-02-19T05:04:41.274Z,29.04
2023-02-19T05:05:41.226Z,29.64
2023-02-19T05:06:41.214Z,29.82
2023-02-19T05:07:41.227Z,28.25
2023-02-19T05:08:41.217Z,30.69
2023-02-19T05:09:41.224Z,32.06
2023-02-19T05:10:41.258Z,30.99
2023-02-19T05:11:41.285Z,32.17
2023-02-19T05:12:41.361Z,32.29
2023-02-19T05:13:41.415Z,33.54
2023-02-19T05:14:41.320Z,32.42
2023-02-19T05:15:41.347Z,30.05
2023-02-19T05:16:41.306Z,31.70
2023-02-19T05:17:41.302Z,32.93
2023-02-19T05:18:41.294Z,27.33
2023-02-19T05:19:41.297Z,34.18
2023-02-19T05:20:41.312Z,30.45
2023-02-19T05:21:41.311Z,28.49
2023-02-19T05:22:41.307Z,31.26
2023-02-19T05:23:41.283Z,32.66
2023-02-19T05:24:41.265Z,33.26
2023-02-19T05:25:41.245Z,33.66
2023-02-19T05:26:41.244Z,28.67
2023-02-19T05:27:41.253Z,29.16
2023-02-19T05:28:41.242Z,28.47
2023-02-19T05:29:41.266Z,31.28
2023-02-19T05:30:41.250Z,32.86
2023-02-19T05:31:41.460Z,27.81
2023-02-19T05:32:41.290Z,25.95
2023-02-19T05:33:41.337Z,25.63
2023-02-19T05:34:41.352Z,28.48
2023-02-19T05:35:41.340Z,34.22
2023-02-19T05:36:41.323Z,28.05
2023-02-19T05:37:41.337Z,29.63
2023-02-19T05:38:41.343Z,29.21
2023-02-19T05:39:41.442Z,34.91
2023-02-19T05:40:41.397Z,31.26
2023-02-19T05:41:41.430Z,30.86
2023-02-19T05:42:41.412Z,34.39
2023-02-19T05:43:41.445Z,29.75
2023-02-19T05:44:41.406Z,34.04
2023-02-19T05:45:41.408Z,31.40
2023-02-19T05:46:41.564Z,30.50
2023-02-19T05:47:41.429Z,28.99
2023-02-19T05:48:41.398Z,29.38
2023-02-19T05:49:41.401Z,30.67
2023-02-19T05:50:41.470Z,29.47
2023-02-19T05:51:41.417Z,29.42
2023-02-19T05:52:41.404Z,30.19
2023-02-19T05:53:41.388Z,29.22
2023-02-19T05:54:41.396Z,26.49
2023-02-19T05:55:41.363Z,31.13
2023-02-19T05:56:41.372Z,31.06
2023-02-19T05:57:43.421Z,29.61
2023-02-19T05:58:41.355Z,28.23
2023-02-19T05:59:41.332Z,32.46
2023-02-19T06:00:41.325Z,31.33
2023-02-19T06:01:41.323Z,25.00
2023-02-19T06:02:41.370Z,29.08
2023-02-19T06:03:41.318Z,35.56
2023-02-19T06:04:41.285Z,30.99
2023-02-19T06:05:41.291Z,33.39
2023-02-19T06:06:41.308Z,28.99
2023-02-19T06:07:41.317Z,29.36
2023-02-19T06:08:41.310Z,32.42
2023-02-19T06:09:41.302Z,38.35
2023-02-19T06:10:41.304Z,32.74
2023-02-19T06:11:41.272Z,30.13
2023-02-19T06:12:41.250Z,32.76
2023-02-19T06:13:41.238Z,31.71
2023-02-19T06:14:41.245Z,33.67
2023-02-19T06:15:42.130Z,32.92
2023-02-19T07:19:40.732Z,37.40
2023-02-19T07:20:40.729Z,36.72
2023-02-19T07:21:40.740Z,36.03
2023-02-19T07:22:40.752Z,36.66
2023-02-19T07:23:40.748Z,39.82
2023-02-19T07:24:40.752Z,41.59
2023-02-19T07:25:40.754Z,37.62
2023-02-19T07:26:40.760Z,37.59
2023-02-19T07:27:40.740Z,34.43
2023-02-19T07:28:40.742Z,35.00
2023-02-19T07:29:40.741Z,38.14
2023-02-19T07:30:40.748Z,36.29
2023-02-19T07:31:40.785Z,36.28
2023-02-19T07:32:40.745Z,32.44
2023-02-19T07:33:40.758Z,35.86
2023-02-19T07:34:40.773Z,37.02
2023-02-19T07:35:40.780Z,37.63
2023-02-19T07:36:40.802Z,35.76
2023-02-19T07:37:40.922Z,36.75
2023-02-19T07:38:40.874Z,35.84
2023-02-19T07:39:40.910Z,36.88
2023-02-19T07:40:40.946Z,34.04
2023-02-19T07:41:40.949Z,37.67
2023-02-19T07:42:40.955Z,38.38
2023-02-19T07:43:40.969Z,40.03
2023-02-19T07:44:40.969Z,36.69
2023-02-19T07:45:40.998Z,39.01
2023-02-19T07:46:40.970Z,38.44
2023-02-19T07:47:40.983Z,40.03
2023-02-19T07:48:40.979Z,37.56
2023-02-19T07:49:41.002Z,38.47
2023-02-19T07:50:41.011Z,38.05
2023-02-19T07:51:41.040Z,36.75
2023-02-19T07:52:41.046Z,39.03
2023-02-19T07:53:41.076Z,40.15
2023-02-19T07:54:41.149Z,37.86
2023-02-19T07:55:41.094Z,37.54
2023-02-19T07:56:41.098Z,39.00
2023-02-19T07:57:41.132Z,37.74
2023-02-19T07:58:41.199Z,35.77
2023-02-19T07:59:41.177Z,37.06
2023-02-19T08:00:41.213Z,39.17
2023-02-19T08:01:41.265Z,38.84
2023-02-19T08:02:41.308Z,37.72
2023-02-19T08:03:41.361Z,43.15
2023-02-19T08:04:41.342Z,36.97
2023-02-19T08:05:41.361Z,37.29
2023-02-19T08:06:41.409Z,38.17
2023-02-19T08:07:41.407Z,35.58
2023-02-19T08:08:41.442Z,36.91
2023-02-19T08:09:41.557Z,35.59
2023-02-19T08:10:41.512Z,41.68
2023-02-19T08:11:41.551Z,36.84
2023-02-19T08:12:41.594Z,40.24
2023-02-19T08:13:41.639Z,34.22
2023-02-19T08:14:41.683Z,39.46
2023-02-19T08:15:41.728Z,37.33
2023-02-19T08:16:43.475Z,36.73
2023-02-19T08:17:41.797Z,39.85
2023-02-19T08:18:41.816Z,37.94
2023-02-19T08:19:41.829Z,36.96
2023-02-19T08:20:41.839Z,37.59
2023-02-19T08:21:41.873Z,41.82
2023-02-19T08:22:41.882Z,34.88
2023-02-19T08:23:41.917Z,35.78
2023-02-19T11:17:47.848Z,51.56
2023-02-19T11:18:47.860Z,50.00
2023-02-19T11:19:47.942Z,53.01
2023-02-19T11:20:47.942Z,50.97
2023-02-19T11:21:47.974Z,51.27
2023-02-19T11:22:48.012Z,51.39
2023-02-19T11:23:48.067Z,48.09
2023-02-19T11:24:48.087Z,48.11
2023-02-19T11:25:48.137Z,49.13
2023-02-19T11:26:48.231Z,50.87
2023-02-19T11:27:48.202Z,53.44
2023-02-19T11:28:48.247Z,48.72
2023-02-19T11:29:48.287Z,51.06
2023-02-19T11:30:48.337Z,52.23
2023-02-19T11:31:48.421Z,49.84
2023-02-19T11:32:48.406Z,49.40
2023-02-19T11:33:48.448Z,53.70
2023-02-19T11:34:48.477Z,47.58
2023-02-19T11:45:48.902Z,52.96
2023-02-19T11:46:48.995Z,53.28
2023-02-19T11:47:48.975Z,50.89
2023-02-19T11:48:49.019Z,52.88
2023-02-19T11:49:49.047Z,53.89
2023-02-19T11:50:49.076Z,52.72
2023-02-19T11:51:52.330Z,54.10
2023-02-19T11:52:49.120Z,53.28
2023-02-19T11:53:49.941Z,51.72
2023-02-19T11:54:49.037Z,54.13
2023-02-19T11:55:48.994Z,52.43
2023-02-19T11:56:48.981Z,49.89
2023-02-19T11:57:48.928Z,53.92
2023-02-19T11:58:48.888Z,54.25
2023-02-19T11:59:48.856Z,53.06
2023-02-19T12:00:48.826Z,52.08
2023-02-19T12:01:48.919Z,50.10
2023-02-19T12:02:48.760Z,54.02
2023-02-19T12:03:48.727Z,55.95
2023-02-19T12:04:48.721Z,54.81
2023-02-19T12:05:49.601Z,56.37
2023-02-19T12:06:48.650Z,53.71
2023-02-19T12:07:48.705Z,53.81
2023-02-19T12:08:48.602Z,54.06
2023-02-19T12:09:48.564Z,49.32
2023-02-19T12:10:48.527Z,52.25
2023-02-19T12:11:48.501Z,56.80
2023-02-19T12:12:48.465Z,50.22
2023-02-19T12:13:48.441Z,52.91
2023-02-19T12:14:48.421Z,51.66
2023-02-19T12:15:48.385Z,51.40
2023-02-19T12:16:49.161Z,50.73
2023-02-19T12:17:48.305Z,46.31
2023-02-19T12:18:48.333Z,54.93
2023-02-19T12:19:48.370Z,48.68
2023-02-19T12:20:48.409Z,51.27
2023-02-19T12:21:48.440Z,51.14
2023-02-19T12:22:48.453Z,49.83
2023-02-19T12:23:48.485Z,48.06
2023-02-19T12:24:48.529Z,54.18
2023-02-19T12:25:48.554Z,52.46
2023-02-19T12:26:48.589Z,50.89
2023-02-19T12:27:49.594Z,50.83
2023-02-19T12:28:48.637Z,48.75
2023-02-19T12:29:48.684Z,50.86
2023-02-19T12:30:48.742Z,48.90
2023-02-19T12:31:48.821Z,50.06
2023-02-19T12:32:48.763Z,49.73
2023-02-19T12:33:48.871Z,52.69
2023-02-19T12:34:48.836Z,49.94
2023-02-19T12:35:48.856Z,52.79
2023-02-19T12:36:50.820Z,48.53
2023-02-19T12:37:48.920Z,52.16
2023-02-19T12:38:48.952Z,50.71
2023-02-19T12:39:48.995Z,51.19
2023-02-19T12:40:49.062Z,48.83
2023-02-19T12:41:49.067Z,45.84
2023-02-19T12:42:51.021Z,48.06
2023-02-19T12:43:49.108Z,45.58
2023-02-19T12:44:49.150Z,48.31
2023-02-19T12:45:49.230Z,52.29
2023-02-19T12:46:49.225Z,46.27
2023-02-19T12:47:49.252Z,46.34
2023-02-19T12:48:49.276Z,47.07
2023-02-19T12:49:49.316Z,45.54
2023-02-19T12:50:49.344Z,45.13
2023-02-19T12:51:49.384Z,50.07
2023-02-19T12:52:49.421Z,43.23
2023-02-19T12:53:49.446Z,44.43
2023-02-19T12:54:49.486Z,46.53
2023-02-19T12:55:49.598Z,48.63
2023-02-19T12:56:49.568Z,42.49
2023-02-19T12:57:49.591Z,42.94
2023-02-19T12:58:49.630Z,43.38
2023-02-19T12:59:49.669Z,46.46
2023-02-19T13:00:50.609Z,47.48
2023-02-19T13:01:49.753Z,44.84
2023-02-19T13:02:49.815Z,44.70
2023-02-19T13:03:49.840Z,44.22
2023-02-19T13:04:49.871Z,46.69
2023-02-19T13:05:49.909Z,46.36
2023-02-19T13:06:49.935Z,43.28
2023-02-19T13:07:49.977Z,44.85
2023-02-19T13:09:05.345Z,42.72
2023-02-19T13:09:51.007Z,42.94
2023-02-19T13:10:49.991Z,43.34
2023-02-19T13:11:49.940Z,44.29
2023-02-19T13:12:49.906Z,43.53
2023-02-19T13:13:49.883Z,44.56
2023-02-19T13:14:49.927Z,47.02
2023-02-19T13:15:49.848Z,46.68
2023-02-19T13:16:49.915Z,45.19
2023-02-19T13:17:49.794Z,42.91
2023-02-19T13:18:49.788Z,42.27
2023-02-19T13:19:49.809Z,44.78
2023-02-19T13:20:49.856Z,45.27
2023-02-19T13:21:49.893Z,45.22
2023-02-19T13:22:49.939Z,45.82
2023-02-19T13:23:49.979Z,45.92
2023-02-19T13:24:50.017Z,42.51
2023-02-19T13:25:50.064Z,41.59
2023-02-19T13:26:50.151Z,38.15
2023-02-19T13:27:50.130Z,39.68
2023-02-19T13:28:51.089Z,41.27
2023-02-19T13:29:52.119Z,43.29
2023-02-19T13:30:50.486Z,42.80
2023-02-19T13:31:50.270Z,43.98
2023-02-19T13:32:50.142Z,44.68
2023-02-19T13:33:50.116Z,47.57
2023-02-19T13:34:50.101Z,43.74
2023-02-19T13:35:50.593Z,40.96
2023-02-19T13:36:50.049Z,40.72
2023-02-19T13:37:50.020Z,42.84
2023-02-19T13:38:50.044Z,43.37
2023-02-19T13:39:49.974Z,42.32
2023-02-19T13:40:50.593Z,43.02
2023-02-19T13:41:49.944Z,40.64
2023-02-19T13:42:49.944Z,43.47
2023-02-19T13:43:49.866Z,39.77
2023-02-19T13:44:50.958Z,37.31
2023-02-19T13:45:50.058Z,39.77
2023-02-19T13:46:50.036Z,39.19
2023-02-19T13:47:50.076Z,40.58
2023-02-19T13:48:50.105Z,36.50
2023-02-19T13:49:50.168Z,41.01
2023-02-19T16:07:54.939Z,39.05
2023-02-19T16:08:54.975Z,36.98
2023-02-19T16:09:55.017Z,38.49
2023-02-19T16:10:55.077Z,36.65
2023-02-19T16:12:55.023Z,37.04
2023-02-19T16:13:55.068Z,38.29
2023-02-19T16:14:54.981Z,37.76
2023-02-19T16:15:54.955Z,40.70
2023-02-19T16:16:54.927Z,38.37
2023-02-19T16:17:54.894Z,41.14
2023-02-19T16:18:54.880Z,41.58
2023-02-19T16:19:54.857Z,41.69
2023-02-19T16:20:54.858Z,39.42
2023-02-19T16:21:54.894Z,39.65
2023-02-19T16:22:54.983Z,39.47
2023-02-19T16:23:55.044Z,41.94
2023-02-19T16:24:55.025Z,40.56
2023-02-19T16:25:55.082Z,37.13
2023-02-19T16:26:55.138Z,39.85
2023-02-19T16:27:55.173Z,42.41
2023-02-19T16:28:55.273Z,40.40
2023-02-19T16:29:55.280Z,38.78
2023-02-19T16:30:55.327Z,38.80
2023-02-19T16:31:55.416Z,43.57
2023-02-19T16:32:55.399Z,43.42
2023-02-19T16:33:55.450Z,42.75
2023-02-19T16:34:55.492Z,44.30
2023-02-19T16:36:55.573Z,45.93
2023-02-19T16:37:55.605Z,46.90
2023-02-19T16:38:55.650Z,43.89
2023-02-19T16:39:55.703Z,41.26
2023-02-19T16:40:55.736Z,44.23
2023-02-19T16:41:55.772Z,45.45
2023-02-19T16:42:55.801Z,46.26
2023-02-19T16:43:55.835Z,49.47
2023-02-19T16:44:55.882Z,43.61
2023-02-19T16:45:55.998Z,44.52
2023-02-19T16:46:55.954Z,49.34
2023-02-19T16:47:56.038Z,49.87
2023-02-19T16:48:56.025Z,47.41
2023-02-19T16:49:56.073Z,48.03
2023-02-19T16:50:56.116Z,48.10
2023-02-19T16:51:56.160Z,50.14
2023-02-19T16:52:56.204Z,48.15
2023-02-19T16:53:56.246Z,49.92
2023-02-19T16:54:56.273Z,47.59
2023-02-19T16:55:56.314Z,47.84
2023-02-19T16:56:56.357Z,48.07
2023-02-19T16:57:56.444Z,50.16
2023-02-19T16:58:56.447Z,51.08
2023-02-19T16:59:56.496Z,48.73
2023-02-19T17:00:56.579Z,49.42
2023-02-19T17:01:56.571Z,46.43
2023-02-19T17:02:56.618Z,51.56
2023-02-19T17:03:56.713Z,48.12
2023-02-19T17:04:56.707Z,52.06
2023-02-19T17:05:56.728Z,53.40
2023-02-19T17:06:56.779Z,52.64
2023-02-19T17:07:56.833Z,51.79
2023-02-19T17:08:56.879Z,50.45
2023-02-19T17:09:56.919Z,50.44
2023-02-19T17:10:56.960Z,53.96
2023-02-19T17:11:57.059Z,55.21
2023-02-19T17:12:57.044Z,52.85
2023-02-19T17:13:57.106Z,49.29
2023-02-19T17:14:57.194Z,56.42
2023-02-19T17:15:57.175Z,51.93
2023-02-19T17:16:57.202Z,54.63
2023-02-19T17:17:57.256Z,57.72
2023-02-19T17:18:57.286Z,56.01
2023-02-19T17:19:57.387Z,57.63
2023-02-19T17:20:57.374Z,55.39
2023-02-19T17:21:57.407Z,57.26
2023-02-19T17:22:57.460Z,55.06
2023-02-19T17:23:58.073Z,56.17
2023-02-19T17:24:57.526Z,54.27
2023-02-19T17:25:57.585Z,54.70
2023-02-19T17:26:57.605Z,55.66
2023-02-19T17:27:57.665Z,58.26
2023-02-19T17:28:57.689Z,55.12
2023-02-19T17:29:57.729Z,57.67
2023-02-19T17:30:57.768Z,57.27
2023-02-19T17:31:57.891Z,56.40
2023-02-19T17:32:58.622Z,55.65
2023-02-19T17:33:57.888Z,58.24
2023-02-19T17:34:57.978Z,57.91
2023-02-19T17:35:57.978Z,56.20
2023-02-19T17:36:58.016Z,56.27
2023-02-19T17:37:58.056Z,58.40
2023-02-19T17:38:58.102Z,59.97
2023-02-19T17:39:58.134Z,58.73
2023-02-19T17:40:58.174Z,59.91
2023-02-19T17:41:58.340Z,62.43
2023-02-19T17:42:58.240Z,61.53
2023-02-19T17:43:58.281Z,59.20
2023-02-19T17:44:58.326Z,62.22
2023-02-19T17:45:58.483Z,61.80
2023-02-19T17:46:58.396Z,60.60
2023-02-19T17:47:59.065Z,57.57
2023-02-19T17:48:58.487Z,62.61
2023-02-19T17:49:58.523Z,60.50
2023-02-19T17:50:58.566Z,61.70
2023-02-19T17:51:58.591Z,61.10
2023-02-19T17:52:58.637Z,63.07
2023-02-19T17:53:58.665Z,60.29
2023-02-19T17:54:58.696Z,61.79
2023-02-19T17:55:58.747Z,61.97
2023-02-19T17:56:58.793Z,58.59
2023-02-19T17:57:58.823Z,58.59
2023-02-19T17:58:58.854Z,55.51
2023-02-19T17:59:58.910Z,58.17
2023-02-19T18:00:59.008Z,61.30
2023-02-19T18:01:58.995Z,60.09
2023-02-19T18:02:59.030Z,58.93
2023-02-19T18:03:59.124Z,59.74
2023-02-19T18:04:59.109Z,60.38
2023-02-19T18:05:59.171Z,60.19
2023-02-19T18:06:59.207Z,60.55
2023-02-19T18:07:59.249Z,62.17
2023-02-19T18:08:59.298Z,63.30
2023-02-19T18:09:59.328Z,58.37
2023-02-19T18:10:59.404Z,62.76
2023-02-19T18:11:59.420Z,63.28
2023-02-19T18:12:59.469Z,62.80
2023-02-19T18:13:59.484Z,60.33
2023-02-19T18:14:59.524Z,62.75
2023-02-19T18:15:59.574Z,59.38
2023-02-19T18:16:59.682Z,64.26
2023-02-19T18:17:59.653Z,63.60
2023-02-19T18:19:00.104Z,63.46
2023-02-19T18:19:59.729Z,61.68
2023-02-19T18:20:59.767Z,63.34
2023-02-19T18:21:59.803Z,61.58
2023-02-19T18:22:59.843Z,63.02
2023-02-19T18:23:59.872Z,64.21
2023-02-19T18:24:59.913Z,65.91
2023-02-19T18:25:59.962Z,65.88
2023-02-19T18:26:59.992Z,62.21
2023-02-19T18:28:00.042Z,60.40
2023-02-19T18:29:01.076Z,63.93
2023-02-19T18:30:00.262Z,64.84
2023-02-19T18:31:00.247Z,65.02
2023-02-19T18:32:00.310Z,63.97
2023-02-19T18:33:00.236Z,62.76
2023-02-19T18:34:00.350Z,61.01
2023-02-19T18:35:00.310Z,63.61
2023-02-19T18:36:00.343Z,63.31
2023-02-19T18:37:00.462Z,64.67
2023-02-19T18:38:00.417Z,63.93
2023-02-19T18:39:00.459Z,66.08
2023-02-19T18:40:00.498Z,65.39
2023-02-19T18:41:00.525Z,66.67
2023-02-19T18:42:00.571Z,63.54
2023-02-19T18:43:00.614Z,66.58
2023-02-19T18:44:00.643Z,61.70
2023-02-19T18:45:00.676Z,62.40
2023-02-19T18:46:00.745Z,63.03
2023-02-19T18:47:00.754Z,64.88
2023-02-19T18:48:00.803Z,62.22
2023-02-19T18:49:00.836Z,65.70
2023-02-19T18:50:00.872Z,66.15
2023-02-19T18:51:00.913Z,63.71
2023-02-19T18:52:00.945Z,64.95
2023-02-19T18:53:01.006Z,64.85
2023-02-19T18:54:01.024Z,63.95
2023-02-19T18:55:01.064Z,63.85
2023-02-19T18:56:01.104Z,64.76
2023-02-19T18:57:01.142Z,66.46
2023-02-19T18:58:01.173Z,64.99
2023-02-19T18:59:01.220Z,64.62
2023-02-19T19:00:01.253Z,68.61
2023-02-19T19:01:01.358Z,66.70
2023-02-19T19:02:01.330Z,65.10
2023-02-19T19:03:01.386Z,68.34
2023-02-19T19:04:01.450Z,62.29
2023-02-19T19:05:01.448Z,67.48
2023-02-19T19:06:01.499Z,67.07
2023-02-19T19:07:01.534Z,66.76
2023-02-19T19:08:01.568Z,68.58
2023-02-19T19:09:01.614Z,69.54
2023-02-19T19:10:01.663Z,70.77
2023-02-19T19:11:01.694Z,68.16
2023-02-19T19:12:01.738Z,69.73
2023-02-19T19:13:01.760Z,69.38
2023-02-19T19:14:01.817Z,68.54
2023-02-19T19:15:01.854Z,70.35
2023-02-19T19:16:01.978Z,68.27
2023-02-19T19:17:01.922Z,70.30
2023-02-19T19:18:02.382Z,67.14
2023-02-19T19:19:01.990Z,66.15
2023-02-19T19:20:02.031Z,68.14
2023-02-19T19:21:02.072Z,69.20
2023-02-19T19:22:02.126Z,67.73
2023-02-19T19:23:02.158Z,68.14
2023-02-19T19:24:02.199Z,70.70
2023-02-19T19:25:02.226Z,71.39
2023-02-19T19:26:02.277Z,69.93
2023-02-19T19:27:02.319Z,67.55
2023-02-19T19:28:02.352Z,71.19
2023-02-19T19:29:02.391Z,69.44
2023-02-19T19:30:02.466Z,68.30
2023-02-19T19:31:02.504Z,68.25
2023-02-19T19:32:02.631Z,69.26
2023-02-19T19:33:02.542Z,66.90
2023-02-19T19:34:02.654Z,69.36
2023-02-19T19:35:02.625Z,69.27
2023-02-19T19:36:02.664Z,70.19
2023-02-19T19:37:02.703Z,68.95
2023-02-19T19:38:02.744Z,70.95
2023-02-19T19:39:02.777Z,71.74
2023-02-19T19:40:02.803Z,71.18
2023-02-19T19:41:02.841Z,73.79
2023-02-19T19:42:02.885Z,68.32
2023-02-19T23:37:02.971Z,67.29
2023-02-19T23:38:02.942Z,69.60
2023-02-19T23:39:02.920Z,70.07
2023-02-19T23:40:02.907Z,70.57
2023-02-19T23:41:02.876Z,72.18
2023-02-19T23:42:02.853Z,67.19
2023-02-19T23:43:02.828Z,69.12
2023-02-19T23:44:02.803Z,72.90
2023-02-19T23:45:02.854Z,68.43
2023-02-19T23:46:02.795Z,68.91
2023-02-19T23:47:02.745Z,68.47
2023-02-19T23:48:02.730Z,72.23
2023-02-19T23:49:03.038Z,70.67
2023-02-19T23:50:02.686Z,71.25
2023-02-19T23:51:02.660Z,70.67
2023-02-19T23:52:02.632Z,70.25
2023-02-19T23:53:02.623Z,68.84
2023-02-19T23:54:02.593Z,69.29
2023-02-19T23:55:02.580Z,69.50
2023-02-19T23:56:02.550Z,69.17
2023-02-19T23:57:02.526Z,69.75
2023-02-19T23:58:02.538Z,71.56
2023-02-19T23:59:02.480Z,69.55
